Alvy, West Virginia
Current Conditions -  °F | °C
As of 7:53 AM on Friday 31 Oct 2014 (Local Time) from KCKB Reporting Station
Overcast Overcast  
Wind Chill:   Ceiling: 4200
Heat Index:   Visibility: 10mi
Dew Point:   Wind: 0mph
Humidity: 82%   Direction: NA
Pressure: 29.96"   Gusts: NA
Location:  39.5266°N, 80.6428°W
Report Text: KCKB 311153Z 00000KT 10SM OVC042 06/03 A2996 RMK AO2 SLP145 T00560028 10061 20050 56009
Loading
Personal Weather Stations






























Interactive Weather Map
Tropical Storm Tracking
New forecast layout! Learn more

10-Day Weather Forecast

Advertisements
Track Severe Weather on mobile